Boyang, China
Current Conditions -  °F | °C
As of 5:00 AM on Saturday 20 Dec 2014 (Local Time) from ZHHH Reporting Station
Haze Haze  
Wind Chill: 32°   Ceiling: Unl
Heat Index: 36°   Visibility: 3mi
Dew Point: 32°   Wind: 4mph
Humidity: 87%   Direction: 100°E
Pressure: 30.33"   Gusts: NA
Location:  28.98°N, 116.67°E
Report Text: ZHHH 192100Z 10002MPS 5000 BR NSC 02/00 Q1027 NOSIG
Loading
Personal Weather Stations






























Interactive Weather Map New forecast layout! Learn more

10-Day Weather Forecast

Advertisements
Track Severe Weather on mobile